sensor_id;sensor_type;location;lat;lon;timestamp;temperature;humidity
12700;DHT22;6414;49.570;6.060;2024-02-23T00:00:03;4.80;99.90
12700;DHT22;6414;49.570;6.060;2024-02-23T00:02:49;4.80;99.90
12700;DHT22;6414;49.570;6.060;2024-02-23T00:05:34;4.80;99.90
12700;DHT22;6414;49.570;6.060;2024-02-23T00:08:21;4.80;99.90
12700;DHT22;6414;49.570;6.060;2024-02-23T00:11:07;4.80;99.90
12700;DHT22;6414;49.570;6.060;2024-02-23T00:13:53;4.80;99.90
12700;DHT22;6414;49.570;6.060;2024-02-23T00:16:39;4.70;99.90
12700;DHT22;6414;49.570;6.060;2024-02-23T00:19:25;4.70;99.90
12700;DHT22;6414;49.570;6.060;2024-02-23T00:22:12;4.80;99.90
12700;DHT22;6414;49.570;6.060;2024-02-23T00:24:58;4.80;99.90
12700;DHT22;6414;49.570;6.060;2024-02-23T00:27:44;4.70;99.90
12700;DHT22;6414;49.570;6.060;2024-02-23T00:30:30;4.70;99.90
12700;DHT22;6414;49.570;6.060;2024-02-23T00:33:16;4.70;99.90
12700;DHT22;6414;49.570;6.060;2024-02-23T00:36:03;4.70;99.90
12700;DHT22;6414;49.570;6.060;2024-02-23T00:38:49;4.70;99.90
12700;DHT22;6414;49.570;6.060;2024-02-23T00:41:34;4.70;99.90
12700;DHT22;6414;49.570;6.060;2024-02-23T00:44:21;4.60;99.90
12700;DHT22;6414;49.570;6.060;2024-02-23T00:47:07;4.50;99.90
12700;DHT22;6414;49.570;6.060;2024-02-23T00:49:54;4.60;99.90
12700;DHT22;6414;49.570;6.060;2024-02-23T00:52:40;4.60;99.90
12700;DHT22;6414;49.570;6.060;2024-02-23T00:55:25;4.60;99.90
12700;DHT22;6414;49.570;6.060;2024-02-23T00:58:12;4.60;99.90
12700;DHT22;6414;49.570;6.060;2024-02-23T01:00:57;4.60;99.90
12700;DHT22;6414;49.570;6.060;2024-02-23T01:03:43;4.60;99.90
12700;DHT22;6414;49.570;6.060;2024-02-23T01:06:28;4.50;99.90
12700;DHT22;6414;49.570;6.060;2024-02-23T01:09:15;4.50;99.90
12700;DHT22;6414;49.570;6.060;2024-02-23T01:12:00;4.50;99.90
12700;DHT22;6414;49.570;6.060;2024-02-23T01:14:46;4.40;99.90
12700;DHT22;6414;49.570;6.060;2024-02-23T01:17:32;4.40;99.90
12700;DHT22;6414;49.570;6.060;2024-02-23T01:20:18;4.40;99.90
12700;DHT22;6414;49.570;6.060;2024-02-23T01:23:04;4.40;99.90
12700;DHT22;6414;49.570;6.060;2024-02-23T01:25:50;4.40;99.90
12700;DHT22;6414;49.570;6.060;2024-02-23T01:28:35;4.40;99.90
12700;DHT22;6414;49.570;6.060;2024-02-23T01:31:21;4.30;99.90
12700;DHT22;6414;49.570;6.060;2024-02-23T01:34:07;4.30;99.90
12700;DHT22;6414;49.570;6.060;2024-02-23T01:36:52;4.30;99.90
12700;DHT22;6414;49.570;6.060;2024-02-23T01:39:38;4.30;99.90
12700;DHT22;6414;49.570;6.060;2024-02-23T01:42:24;4.40;99.90
12700;DHT22;6414;49.570;6.060;2024-02-23T01:45:09;4.30;99.90
12700;DHT22;6414;49.570;6.060;2024-02-23T01:47:55;4.30;99.90
12700;DHT22;6414;49.570;6.060;2024-02-23T01:50:42;4.20;99.90
12700;DHT22;6414;49.570;6.060;2024-02-23T01:53:27;4.20;99.90
12700;DHT22;6414;49.570;6.060;2024-02-23T01:56:13;4.10;99.90
12700;DHT22;6414;49.570;6.060;2024-02-23T01:58:59;4.20;99.90
12700;DHT22;6414;49.570;6.060;2024-02-23T02:01:45;4.20;99.90
12700;DHT22;6414;49.570;6.060;2024-02-23T02:04:30;4.20;99.90
12700;DHT22;6414;49.570;6.060;2024-02-23T02:07:16;4.20;99.90
12700;DHT22;6414;49.570;6.060;2024-02-23T02:10:02;4.20;99.90
12700;DHT22;6414;49.570;6.060;2024-02-23T02:12:48;4.20;99.90
12700;DHT22;6414;49.570;6.060;2024-02-23T02:15:34;4.20;99.90
12700;DHT22;6414;49.570;6.060;2024-02-23T02:18:19;4.30;99.90
12700;DHT22;6414;49.570;6.060;2024-02-23T02:21:05;4.30;99.90
12700;DHT22;6414;49.570;6.060;2024-02-23T02:23:51;4.20;99.90
12700;DHT22;6414;49.570;6.060;2024-02-23T02:26:37;4.30;99.90
12700;DHT22;6414;49.570;6.060;2024-02-23T02:29:23;4.20;99.90
12700;DHT22;6414;49.570;6.060;2024-02-23T02:32:09;4.20;99.90
12700;DHT22;6414;49.570;6.060;2024-02-23T02:34:55;4.30;99.90
12700;DHT22;6414;49.570;6.060;2024-02-23T02:37:40;4.10;99.90
12700;DHT22;6414;49.570;6.060;2024-02-23T02:40:26;4.20;99.90
12700;DHT22;6414;49.570;6.060;2024-02-23T02:43:12;4.20;99.90
12700;DHT22;6414;49.570;6.060;2024-02-23T02:45:58;4.00;99.90
12700;DHT22;6414;49.570;6.060;2024-02-23T02:48:43;4.10;99.90
12700;DHT22;6414;49.570;6.060;2024-02-23T02:51:29;4.10;99.90
12700;DHT22;6414;49.570;6.060;2024-02-23T02:54:15;4.00;99.90
12700;DHT22;6414;49.570;6.060;2024-02-23T02:57:01;4.10;99.90
12700;DHT22;6414;49.570;6.060;2024-02-23T02:59:47;4.10;99.90
12700;DHT22;6414;49.570;6.060;2024-02-23T03:02:33;4.10;99.90
12700;DHT22;6414;49.570;6.060;2024-02-23T03:05:18;4.10;99.90
12700;DHT22;6414;49.570;6.060;2024-02-23T03:08:04;4.10;99.90
12700;DHT22;6414;49.570;6.060;2024-02-23T03:10:50;4.10;99.90
12700;DHT22;6414;49.570;6.060;2024-02-23T03:13:35;4.10;99.90
12700;DHT22;6414;49.570;6.060;2024-02-23T03:16:21;4.10;99.90
12700;DHT22;6414;49.570;6.060;2024-02-23T03:19:06;4.10;99.90
12700;DHT22;6414;49.570;6.060;2024-02-23T03:21:52;4.10;99.90
12700;DHT22;6414;49.570;6.060;2024-02-23T03:24:38;4.10;99.90
12700;DHT22;6414;49.570;6.060;2024-02-23T03:27:27;4.00;99.90
12700;DHT22;6414;49.570;6.060;2024-02-23T03:30:09;4.00;99.90
12700;DHT22;6414;49.570;6.060;2024-02-23T03:32:55;4.10;99.90
12700;DHT22;6414;49.570;6.060;2024-02-23T03:35:41;4.10;99.90
12700;DHT22;6414;49.570;6.060;2024-02-23T03:38:27;4.00;99.90
12700;DHT22;6414;49.570;6.060;2024-02-23T03:41:12;4.10;99.90
12700;DHT22;6414;49.570;6.060;2024-02-23T03:43:58;4.10;99.90
12700;DHT22;6414;49.570;6.060;2024-02-23T03:46:43;4.10;99.90
12700;DHT22;6414;49.570;6.060;2024-02-23T03:49:29;4.00;99.90
12700;DHT22;6414;49.570;6.060;2024-02-23T03:52:15;3.90;99.90
12700;DHT22;6414;49.570;6.060;2024-02-23T03:55:01;3.90;99.90
12700;DHT22;6414;49.570;6.060;2024-02-23T03:57:47;3.90;99.90
12700;DHT22;6414;49.570;6.060;2024-02-23T04:00:33;3.90;99.90
12700;DHT22;6414;49.570;6.060;2024-02-23T04:03:18;3.80;99.90
12700;DHT22;6414;49.570;6.060;2024-02-23T04:06:04;3.80;99.90
12700;DHT22;6414;49.570;6.060;2024-02-23T04:08:50;3.80;99.90
12700;DHT22;6414;49.570;6.060;2024-02-23T04:11:35;3.80;99.90
12700;DHT22;6414;49.570;6.060;2024-02-23T04:14:21;3.90;99.90
12700;DHT22;6414;49.570;6.060;2024-02-23T04:17:06;3.90;99.90
12700;DHT22;6414;49.570;6.060;2024-02-23T04:19:53;3.80;99.90
12700;DHT22;6414;49.570;6.060;2024-02-23T04:22:39;3.80;99.90
12700;DHT22;6414;49.570;6.060;2024-02-23T04:25:25;3.80;99.90
12700;DHT22;6414;49.570;6.060;2024-02-23T04:28:11;3.90;99.90
12700;DHT22;6414;49.570;6.060;2024-02-23T04:30:57;3.90;99.90
12700;DHT22;6414;49.570;6.060;2024-02-23T04:33:43;3.80;99.90
12700;DHT22;6414;49.570;6.060;2024-02-23T04:36:29;3.80;99.90
12700;DHT22;6414;49.570;6.060;2024-02-23T04:39:14;3.90;99.90
12700;DHT22;6414;49.570;6.060;2024-02-23T04:42:00;3.90;99.90
12700;DHT22;6414;49.570;6.060;2024-02-23T04:44:46;3.90;99.90
12700;DHT22;6414;49.570;6.060;2024-02-23T04:47:32;3.80;99.90
12700;DHT22;6414;49.570;6.060;2024-02-23T04:50:18;3.80;99.90
12700;DHT22;6414;49.570;6.060;2024-02-23T04:53:03;3.80;99.90
12700;DHT22;6414;49.570;6.060;2024-02-23T04:55:49;3.80;99.90
12700;DHT22;6414;49.570;6.060;2024-02-23T04:58:35;3.60;99.90
12700;DHT22;6414;49.570;6.060;2024-02-23T05:01:21;3.70;99.90
12700;DHT22;6414;49.570;6.060;2024-02-23T05:04:07;3.60;99.90
12700;DHT22;6414;49.570;6.060;2024-02-23T05:06:53;3.60;99.90
12700;DHT22;6414;49.570;6.060;2024-02-23T05:09:38;3.60;99.90
12700;DHT22;6414;49.570;6.060;2024-02-23T05:12:25;3.70;99.90
12700;DHT22;6414;49.570;6.060;2024-02-23T05:15:10;3.70;99.90
12700;DHT22;6414;49.570;6.060;2024-02-23T05:17:56;3.70;99.90
12700;DHT22;6414;49.570;6.060;2024-02-23T05:20:42;3.70;99.90
12700;DHT22;6414;49.570;6.060;2024-02-23T05:23:28;3.60;99.90
12700;DHT22;6414;49.570;6.060;2024-02-23T05:26:13;3.60;99.90
12700;DHT22;6414;49.570;6.060;2024-02-23T05:28:59;3.60;99.90
12700;DHT22;6414;49.570;6.060;2024-02-23T05:31:49;3.60;99.90
12700;DHT22;6414;49.570;6.060;2024-02-23T05:34:35;3.70;99.90
12700;DHT22;6414;49.570;6.060;2024-02-23T05:37:20;3.70;99.90
12700;DHT22;6414;49.570;6.060;2024-02-23T05:40:06;3.70;99.90
12700;DHT22;6414;49.570;6.060;2024-02-23T05:42:52;3.80;99.90
12700;DHT22;6414;49.570;6.060;2024-02-23T05:45:38;3.80;99.90
12700;DHT22;6414;49.570;6.060;2024-02-23T05:48:23;3.80;99.90
12700;DHT22;6414;49.570;6.060;2024-02-23T05:51:09;3.80;99.90
12700;DHT22;6414;49.570;6.060;2024-02-23T05:53:55;3.80;99.90
12700;DHT22;6414;49.570;6.060;2024-02-23T05:56:40;3.90;99.90
12700;DHT22;6414;49.570;6.060;2024-02-23T05:59:26;3.90;99.90
12700;DHT22;6414;49.570;6.060;2024-02-23T06:02:12;3.90;99.90
12700;DHT22;6414;49.570;6.060;2024-02-23T06:04:58;3.80;99.90
12700;DHT22;6414;49.570;6.060;2024-02-23T06:07:43;3.90;99.90
12700;DHT22;6414;49.570;6.060;2024-02-23T06:10:29;3.80;99.90
12700;DHT22;6414;49.570;6.060;2024-02-23T06:13:15;3.80;99.90
12700;DHT22;6414;49.570;6.060;2024-02-23T06:16:01;3.70;99.90
12700;DHT22;6414;49.570;6.060;2024-02-23T06:18:46;3.80;99.90
12700;DHT22;6414;49.570;6.060;2024-02-23T06:21:33;3.80;99.90
12700;DHT22;6414;49.570;6.060;2024-02-23T06:24:18;3.70;99.90
12700;DHT22;6414;49.570;6.060;2024-02-23T06:27:04;3.60;99.90
12700;DHT22;6414;49.570;6.060;2024-02-23T06:29:49;3.60;99.90
12700;DHT22;6414;49.570;6.060;2024-02-23T06:32:35;3.60;99.90
12700;DHT22;6414;49.570;6.060;2024-02-23T06:35:21;3.70;99.90
12700;DHT22;6414;49.570;6.060;2024-02-23T06:38:06;3.70;99.90
12700;DHT22;6414;49.570;6.060;2024-02-23T06:40:52;3.70;99.90
12700;DHT22;6414;49.570;6.060;2024-02-23T06:43:39;3.80;99.90
12700;DHT22;6414;49.570;6.060;2024-02-23T06:46:24;3.90;99.90
12700;DHT22;6414;49.570;6.060;2024-02-23T06:49:10;3.90;99.90
12700;DHT22;6414;49.570;6.060;2024-02-23T06:51:56;3.90;99.90
12700;DHT22;6414;49.570;6.060;2024-02-23T06:54:41;4.00;99.90
12700;DHT22;6414;49.570;6.060;2024-02-23T06:57:27;4.00;99.90
12700;DHT22;6414;49.570;6.060;2024-02-23T07:00:12;4.00;99.90
12700;DHT22;6414;49.570;6.060;2024-02-23T07:02:58;3.90;99.90
12700;DHT22;6414;49.570;6.060;2024-02-23T07:05:44;4.00;99.90
12700;DHT22;6414;49.570;6.060;2024-02-23T07:08:30;4.00;99.90
12700;DHT22;6414;49.570;6.060;2024-02-23T07:11:15;4.00;99.90
12700;DHT22;6414;49.570;6.060;2024-02-23T07:14:01;4.00;99.90
12700;DHT22;6414;49.570;6.060;2024-02-23T07:16:46;4.10;99.90
12700;DHT22;6414;49.570;6.060;2024-02-23T07:19:33;4.10;99.90
12700;DHT22;6414;49.570;6.060;2024-02-23T07:22:19;4.20;99.90
12700;DHT22;6414;49.570;6.060;2024-02-23T07:25:05;4.20;99.90
12700;DHT22;6414;49.570;6.060;2024-02-23T07:27:50;4.20;99.90
12700;DHT22;6414;49.570;6.060;2024-02-23T07:30:36;4.10;99.90
12700;DHT22;6414;49.570;6.060;2024-02-23T07:33:21;4.10;99.90
12700;DHT22;6414;49.570;6.060;2024-02-23T07:36:07;4.10;99.90
12700;DHT22;6414;49.570;6.060;2024-02-23T07:38:52;4.10;99.90
12700;DHT22;6414;49.570;6.060;2024-02-23T07:41:38;4.10;99.90
12700;DHT22;6414;49.570;6.060;2024-02-23T07:44:24;4.10;99.90
12700;DHT22;6414;49.570;6.060;2024-02-23T07:47:09;4.10;99.90
12700;DHT22;6414;49.570;6.060;2024-02-23T07:49:55;4.20;99.90
12700;DHT22;6414;49.570;6.060;2024-02-23T07:52:41;4.20;99.90
12700;DHT22;6414;49.570;6.060;2024-02-23T07:55:26;4.20;99.90
12700;DHT22;6414;49.570;6.060;2024-02-23T07:58:13;4.30;99.90
12700;DHT22;6414;49.570;6.060;2024-02-23T08:00:58;4.50;99.90
12700;DHT22;6414;49.570;6.060;2024-02-23T08:03:44;4.50;99.90
12700;DHT22;6414;49.570;6.060;2024-02-23T08:06:30;4.40;99.90
12700;DHT22;6414;49.570;6.060;2024-02-23T08:09:16;4.50;99.90
12700;DHT22;6414;49.570;6.060;2024-02-23T08:12:02;4.60;99.90
12700;DHT22;6414;49.570;6.060;2024-02-23T08:14:47;4.60;99.90
12700;DHT22;6414;49.570;6.060;2024-02-23T08:17:33;4.70;99.90
12700;DHT22;6414;49.570;6.060;2024-02-23T08:20:19;4.70;99.90
12700;DHT22;6414;49.570;6.060;2024-02-23T08:23:04;4.80;99.90
12700;DHT22;6414;49.570;6.060;2024-02-23T08:25:50;4.80;99.90
12700;DHT22;6414;49.570;6.060;2024-02-23T08:30:31;4.90;99.90
12700;DHT22;6414;49.570;6.060;2024-02-23T08:33:17;4.90;99.90
12700;DHT22;6414;49.570;6.060;2024-02-23T08:36:03;5.10;99.90
12700;DHT22;6414;49.570;6.060;2024-02-23T08:38:50;5.00;99.90
12700;DHT22;6414;49.570;6.060;2024-02-23T08:41:36;5.20;99.90
12700;DHT22;6414;49.570;6.060;2024-02-23T08:44:22;5.20;99.90
12700;DHT22;6414;49.570;6.060;2024-02-23T08:47:09;5.40;99.90
12700;DHT22;6414;49.570;6.060;2024-02-23T08:49:55;5.20;99.90
12700;DHT22;6414;49.570;6.060;2024-02-23T08:52:41;5.20;99.90
12700;DHT22;6414;49.570;6.060;2024-02-23T08:55:27;5.20;99.90
12700;DHT22;6414;49.570;6.060;2024-02-23T08:58:13;5.20;99.90
12700;DHT22;6414;49.570;6.060;2024-02-23T09:01:00;5.40;99.90
12700;DHT22;6414;49.570;6.060;2024-02-23T09:03:45;5.50;99.90
12700;DHT22;6414;49.570;6.060;2024-02-23T09:06:31;5.30;99.90
12700;DHT22;6414;49.570;6.060;2024-02-23T09:09:17;5.40;99.90
12700;DHT22;6414;49.570;6.060;2024-02-23T09:12:02;5.20;99.90
12700;DHT22;6414;49.570;6.060;2024-02-23T09:14:48;5.30;99.90
12700;DHT22;6414;49.570;6.060;2024-02-23T09:17:34;5.30;99.90
12700;DHT22;6414;49.570;6.060;2024-02-23T09:20:19;5.40;99.90
12700;DHT22;6414;49.570;6.060;2024-02-23T09:23:06;5.30;99.90
12700;DHT22;6414;49.570;6.060;2024-02-23T09:25:52;5.30;99.90
12700;DHT22;6414;49.570;6.060;2024-02-23T09:28:37;5.40;99.90
12700;DHT22;6414;49.570;6.060;2024-02-23T09:31:23;5.50;99.90
12700;DHT22;6414;49.570;6.060;2024-02-23T09:34:09;5.70;99.90
12700;DHT22;6414;49.570;6.060;2024-02-23T09:36:55;6.10;99.90
12700;DHT22;6414;49.570;6.060;2024-02-23T09:39:40;6.00;99.90
12700;DHT22;6414;49.570;6.060;2024-02-23T09:42:26;5.90;99.90
12700;DHT22;6414;49.570;6.060;2024-02-23T09:45:12;5.60;99.90
12700;DHT22;6414;49.570;6.060;2024-02-23T09:47:57;5.60;99.90
12700;DHT22;6414;49.570;6.060;2024-02-23T09:50:43;5.50;99.90
12700;DHT22;6414;49.570;6.060;2024-02-23T09:53:29;5.60;99.90
12700;DHT22;6414;49.570;6.060;2024-02-23T09:56:15;5.50;99.90
12700;DHT22;6414;49.570;6.060;2024-02-23T09:59:02;5.50;99.90
12700;DHT22;6414;49.570;6.060;2024-02-23T10:01:46;6.20;99.90
12700;DHT22;6414;49.570;6.060;2024-02-23T10:04:32;6.20;99.90
12700;DHT22;6414;49.570;6.060;2024-02-23T10:07:18;6.30;99.90
12700;DHT22;6414;49.570;6.060;2024-02-23T10:10:06;6.10;99.90
12700;DHT22;6414;49.570;6.060;2024-02-23T10:12:50;5.80;99.90
12700;DHT22;6414;49.570;6.060;2024-02-23T10:15:36;5.90;99.90
12700;DHT22;6414;49.570;6.060;2024-02-23T10:18:22;6.30;99.90
12700;DHT22;6414;49.570;6.060;2024-02-23T10:21:08;6.20;99.90
12700;DHT22;6414;49.570;6.060;2024-02-23T10:23:55;6.40;99.90
12700;DHT22;6414;49.570;6.060;2024-02-23T10:26:40;6.10;99.90
12700;DHT22;6414;49.570;6.060;2024-02-23T10:29:26;6.10;99.90
12700;DHT22;6414;49.570;6.060;2024-02-23T10:32:13;5.80;99.90
12700;DHT22;6414;49.570;6.060;2024-02-23T10:34:58;5.60;99.90
12700;DHT22;6414;49.570;6.060;2024-02-23T10:37:43;5.50;99.90
12700;DHT22;6414;49.570;6.060;2024-02-23T10:40:31;5.20;99.90
12700;DHT22;6414;49.570;6.060;2024-02-23T10:43:19;5.20;99.90
12700;DHT22;6414;49.570;6.060;2024-02-23T10:46:03;5.30;99.90
12700;DHT22;6414;49.570;6.060;2024-02-23T10:48:49;5.40;99.90
12700;DHT22;6414;49.570;6.060;2024-02-23T10:51:35;5.20;99.90
12700;DHT22;6414;49.570;6.060;2024-02-23T10:54:21;5.30;99.90
12700;DHT22;6414;49.570;6.060;2024-02-23T10:57:06;5.50;99.90
12700;DHT22;6414;49.570;6.060;2024-02-23T10:59:52;5.60;99.90
12700;DHT22;6414;49.570;6.060;2024-02-23T11:02:45;5.50;99.90
12700;DHT22;6414;49.570;6.060;2024-02-23T11:05:29;5.60;99.90
12700;DHT22;6414;49.570;6.060;2024-02-23T11:08:19;5.70;99.90
12700;DHT22;6414;49.570;6.060;2024-02-23T11:11:08;5.70;99.90
12700;DHT22;6414;49.570;6.060;2024-02-23T11:13:55;6.10;99.90
12700;DHT22;6414;49.570;6.060;2024-02-23T11:16:41;6.40;99.90
12700;DHT22;6414;49.570;6.060;2024-02-23T11:19:36;6.60;99.90
12700;DHT22;6414;49.570;6.060;2024-02-23T11:22:25;6.80;99.90
12700;DHT22;6414;49.570;6.060;2024-02-23T11:25:11;6.70;99.90
12700;DHT22;6414;49.570;6.060;2024-02-23T11:27:57;6.70;99.90
12700;DHT22;6414;49.570;6.060;2024-02-23T11:30:44;6.40;99.90
12700;DHT22;6414;49.570;6.060;2024-02-23T11:33:29;6.30;99.90
12700;DHT22;6414;49.570;6.060;2024-02-23T11:36:27;6.50;99.90
12700;DHT22;6414;49.570;6.060;2024-02-23T11:39:13;6.60;99.90
12700;DHT22;6414;49.570;6.060;2024-02-23T11:41:59;6.40;99.90
12700;DHT22;6414;49.570;6.060;2024-02-23T11:44:45;6.40;99.90
12700;DHT22;6414;49.570;6.060;2024-02-23T11:47:31;6.50;99.90
12700;DHT22;6414;49.570;6.060;2024-02-23T11:50:16;6.60;99.90
12700;DHT22;6414;49.570;6.060;2024-02-23T11:53:02;7.10;99.90
12700;DHT22;6414;49.570;6.060;2024-02-23T11:55:48;7.30;99.90
12700;DHT22;6414;49.570;6.060;2024-02-23T11:58:33;7.60;99.90
12700;DHT22;6414;49.570;6.060;2024-02-23T12:01:19;7.50;99.90
12700;DHT22;6414;49.570;6.060;2024-02-23T12:04:05;7.70;99.90
12700;DHT22;6414;49.570;6.060;2024-02-23T12:06:51;7.40;99.90
12700;DHT22;6414;49.570;6.060;2024-02-23T12:09:36;7.00;99.90
12700;DHT22;6414;49.570;6.060;2024-02-23T12:12:23;7.20;99.90
12700;DHT22;6414;49.570;6.060;2024-02-23T12:15:08;6.90;99.90
12700;DHT22;6414;49.570;6.060;2024-02-23T12:17:57;6.90;99.90
12700;DHT22;6414;49.570;6.060;2024-02-23T12:20:40;6.90;99.90
12700;DHT22;6414;49.570;6.060;2024-02-23T12:23:26;6.90;99.90
12700;DHT22;6414;49.570;6.060;2024-02-23T12:26:13;7.20;99.90
12700;DHT22;6414;49.570;6.060;2024-02-23T12:29:01;7.40;99.90
12700;DHT22;6414;49.570;6.060;2024-02-23T12:31:46;7.20;99.90
12700;DHT22;6414;49.570;6.060;2024-02-23T12:34:32;7.10;99.90
12700;DHT22;6414;49.570;6.060;2024-02-23T12:37:18;6.90;99.90
12700;DHT22;6414;49.570;6.060;2024-02-23T12:40:03;6.90;99.90
12700;DHT22;6414;49.570;6.060;2024-02-23T12:42:49;7.00;99.90
12700;DHT22;6414;49.570;6.060;2024-02-23T12:45:34;7.00;99.90
12700;DHT22;6414;49.570;6.060;2024-02-23T12:48:20;7.10;99.90
12700;DHT22;6414;49.570;6.060;2024-02-23T12:51:06;7.20;99.90
12700;DHT22;6414;49.570;6.060;2024-02-23T12:53:52;7.40;99.90
12700;DHT22;6414;49.570;6.060;2024-02-23T12:56:37;7.30;99.90
12700;DHT22;6414;49.570;6.060;2024-02-23T12:59:23;7.30;99.90
12700;DHT22;6414;49.570;6.060;2024-02-23T13:02:09;7.30;99.90
12700;DHT22;6414;49.570;6.060;2024-02-23T13:04:54;7.60;99.90
12700;DHT22;6414;49.570;6.060;2024-02-23T13:07:40;7.90;99.90
12700;DHT22;6414;49.570;6.060;2024-02-23T13:10:26;7.90;99.90
12700;DHT22;6414;49.570;6.060;2024-02-23T13:13:12;7.90;99.90
12700;DHT22;6414;49.570;6.060;2024-02-23T13:15:58;7.60;99.90
12700;DHT22;6414;49.570;6.060;2024-02-23T13:18:43;7.70;99.90
12700;DHT22;6414;49.570;6.060;2024-02-23T13:21:29;7.90;99.90
12700;DHT22;6414;49.570;6.060;2024-02-23T13:24:15;8.20;99.90
12700;DHT22;6414;49.570;6.060;2024-02-23T13:27:01;8.30;99.90
12700;DHT22;6414;49.570;6.060;2024-02-23T13:29:47;7.70;99.90
12700;DHT22;6414;49.570;6.060;2024-02-23T13:32:33;7.60;99.90
12700;DHT22;6414;49.570;6.060;2024-02-23T13:35:19;7.60;99.90
12700;DHT22;6414;49.570;6.060;2024-02-23T13:38:04;7.50;99.90
12700;DHT22;6414;49.570;6.060;2024-02-23T13:40:50;7.70;99.90
12700;DHT22;6414;49.570;6.060;2024-02-23T13:43:36;7.70;99.90
12700;DHT22;6414;49.570;6.060;2024-02-23T13:46:22;8.10;99.90
12700;DHT22;6414;49.570;6.060;2024-02-23T13:49:08;8.30;99.90
12700;DHT22;6414;49.570;6.060;2024-02-23T13:51:53;8.40;99.90
12700;DHT22;6414;49.570;6.060;2024-02-23T13:54:39;8.60;99.90
12700;DHT22;6414;49.570;6.060;2024-02-23T13:57:25;8.60;99.90
12700;DHT22;6414;49.570;6.060;2024-02-23T14:00:11;8.40;1.00
12700;DHT22;6414;49.570;6.060;2024-02-23T14:02:57;8.60;8.10
12700;DHT22;6414;49.570;6.060;2024-02-23T14:05:43;8.40;1.00
12700;DHT22;6414;49.570;6.060;2024-02-23T14:08:28;8.40;1.00
12700;DHT22;6414;49.570;6.060;2024-02-23T14:11:14;8.50;1.00
12700;DHT22;6414;49.570;6.060;2024-02-23T14:14:00;8.50;3.90
12700;DHT22;6414;49.570;6.060;2024-02-23T14:16:45;8.40;27.00
12700;DHT22;6414;49.570;6.060;2024-02-23T14:19:31;8.10;1.00
12700;DHT22;6414;49.570;6.060;2024-02-23T14:22:17;8.00;1.00
12700;DHT22;6414;49.570;6.060;2024-02-23T14:25:03;8.20;8.20
12700;DHT22;6414;49.570;6.060;2024-02-23T14:27:49;8.10;1.00
12700;DHT22;6414;49.570;6.060;2024-02-23T14:30:35;8.20;99.90
12700;DHT22;6414;49.570;6.060;2024-02-23T14:33:21;8.10;13.30
12700;DHT22;6414;49.570;6.060;2024-02-23T14:36:06;8.00;58.00
12700;DHT22;6414;49.570;6.060;2024-02-23T14:38:52;8.00;99.90
12700;DHT22;6414;49.570;6.060;2024-02-23T14:41:39;7.90;45.70
12700;DHT22;6414;49.570;6.060;2024-02-23T14:44:24;7.90;99.90
12700;DHT22;6414;49.570;6.060;2024-02-23T14:47:10;7.80;99.90
12700;DHT22;6414;49.570;6.060;2024-02-23T14:49:56;7.70;99.90
12700;DHT22;6414;49.570;6.060;2024-02-23T14:52:41;7.40;99.90
12700;DHT22;6414;49.570;6.060;2024-02-23T14:55:27;7.30;99.90
12700;DHT22;6414;49.570;6.060;2024-02-23T14:58:13;7.20;99.90
12700;DHT22;6414;49.570;6.060;2024-02-23T15:03:00;7.40;99.90
12700;DHT22;6414;49.570;6.060;2024-02-23T15:05:46;7.40;99.90
12700;DHT22;6414;49.570;6.060;2024-02-23T15:08:33;7.30;99.90
12700;DHT22;6414;49.570;6.060;2024-02-23T15:11:19;7.30;99.90
12700;DHT22;6414;49.570;6.060;2024-02-23T15:14:05;7.20;99.90
12700;DHT22;6414;49.570;6.060;2024-02-23T15:16:51;7.20;99.90
12700;DHT22;6414;49.570;6.060;2024-02-23T15:19:37;7.20;99.90
12700;DHT22;6414;49.570;6.060;2024-02-23T15:22:23;7.20;99.90
12700;DHT22;6414;49.570;6.060;2024-02-23T15:25:09;7.20;99.90
12700;DHT22;6414;49.570;6.060;2024-02-23T15:27:55;7.30;99.90
12700;DHT22;6414;49.570;6.060;2024-02-23T15:30:41;7.20;99.90
12700;DHT22;6414;49.570;6.060;2024-02-23T15:33:27;7.30;99.90
12700;DHT22;6414;49.570;6.060;2024-02-23T15:36:13;7.30;99.90
12700;DHT22;6414;49.570;6.060;2024-02-23T15:38:58;7.30;99.90
12700;DHT22;6414;49.570;6.060;2024-02-23T15:41:44;7.20;99.90
12700;DHT22;6414;49.570;6.060;2024-02-23T15:44:30;7.20;99.90
12700;DHT22;6414;49.570;6.060;2024-02-23T15:47:16;7.20;99.90
12700;DHT22;6414;49.570;6.060;2024-02-23T15:50:02;7.20;99.90
12700;DHT22;6414;49.570;6.060;2024-02-23T15:52:50;7.20;99.90
12700;DHT22;6414;49.570;6.060;2024-02-23T15:55:35;7.10;99.90
12700;DHT22;6414;49.570;6.060;2024-02-23T15:58:21;7.00;99.90
12700;DHT22;6414;49.570;6.060;2024-02-23T16:01:06;6.90;99.90
12700;DHT22;6414;49.570;6.060;2024-02-23T16:03:52;6.90;99.90
12700;DHT22;6414;49.570;6.060;2024-02-23T16:06:38;6.90;99.90
12700;DHT22;6414;49.570;6.060;2024-02-23T16:09:24;6.90;99.90
12700;DHT22;6414;49.570;6.060;2024-02-23T16:12:10;6.90;99.90
12700;DHT22;6414;49.570;6.060;2024-02-23T16:14:56;6.90;99.90
12700;DHT22;6414;49.570;6.060;2024-02-23T16:17:42;6.80;99.90
12700;DHT22;6414;49.570;6.060;2024-02-23T16:20:28;6.60;99.90
12700;DHT22;6414;49.570;6.060;2024-02-23T16:23:13;6.60;99.90
12700;DHT22;6414;49.570;6.060;2024-02-23T16:25:59;6.50;99.90
12700;DHT22;6414;49.570;6.060;2024-02-23T16:28:45;6.30;99.90
12700;DHT22;6414;49.570;6.060;2024-02-23T16:31:31;6.20;99.90
12700;DHT22;6414;49.570;6.060;2024-02-23T16:34:16;5.90;99.90
12700;DHT22;6414;49.570;6.060;2024-02-23T16:37:02;5.80;99.90
12700;DHT22;6414;49.570;6.060;2024-02-23T16:39:48;5.70;99.90
12700;DHT22;6414;49.570;6.060;2024-02-23T16:42:33;5.60;99.90
12700;DHT22;6414;49.570;6.060;2024-02-23T16:45:19;5.60;99.90
12700;DHT22;6414;49.570;6.060;2024-02-23T16:48:05;5.50;99.90
12700;DHT22;6414;49.570;6.060;2024-02-23T16:50:51;5.50;99.90
12700;DHT22;6414;49.570;6.060;2024-02-23T16:53:36;5.40;99.90
12700;DHT22;6414;49.570;6.060;2024-02-23T16:56:22;5.30;99.90
12700;DHT22;6414;49.570;6.060;2024-02-23T16:59:08;5.30;99.90
12700;DHT22;6414;49.570;6.060;2024-02-23T17:01:54;5.20;99.90
12700;DHT22;6414;49.570;6.060;2024-02-23T17:04:39;5.20;99.90
12700;DHT22;6414;49.570;6.060;2024-02-23T17:07:27;5.20;99.90
12700;DHT22;6414;49.570;6.060;2024-02-23T17:10:11;5.20;99.90
12700;DHT22;6414;49.570;6.060;2024-02-23T17:12:57;5.20;99.90
12700;DHT22;6414;49.570;6.060;2024-02-23T17:15:43;5.10;99.90
12700;DHT22;6414;49.570;6.060;2024-02-23T17:18:28;5.10;99.90
12700;DHT22;6414;49.570;6.060;2024-02-23T17:21:14;5.10;99.90
12700;DHT22;6414;49.570;6.060;2024-02-23T17:24:00;5.20;99.90
12700;DHT22;6414;49.570;6.060;2024-02-23T17:26:46;5.20;99.90
12700;DHT22;6414;49.570;6.060;2024-02-23T17:29:33;5.30;99.90
12700;DHT22;6414;49.570;6.060;2024-02-23T17:32:19;5.30;99.90
12700;DHT22;6414;49.570;6.060;2024-02-23T17:35:06;5.20;99.90
12700;DHT22;6414;49.570;6.060;2024-02-23T17:37:52;5.20;99.90
12700;DHT22;6414;49.570;6.060;2024-02-23T17:40:38;5.20;99.90
12700;DHT22;6414;49.570;6.060;2024-02-23T17:43:24;5.10;99.90
12700;DHT22;6414;49.570;6.060;2024-02-23T17:46:09;5.10;99.90
12700;DHT22;6414;49.570;6.060;2024-02-23T17:48:55;5.00;99.90
12700;DHT22;6414;49.570;6.060;2024-02-23T17:51:41;5.00;99.90
12700;DHT22;6414;49.570;6.060;2024-02-23T17:54:27;5.00;99.90
12700;DHT22;6414;49.570;6.060;2024-02-23T17:57:12;5.00;99.90
12700;DHT22;6414;49.570;6.060;2024-02-23T17:59:58;4.90;99.90
12700;DHT22;6414;49.570;6.060;2024-02-23T18:02:44;4.90;99.90
12700;DHT22;6414;49.570;6.060;2024-02-23T18:05:30;5.00;99.90